메인 페이지
METAR-TAF:

METAR-TAF

공항 :

멕시코시티 국제공항

멕시코시티, 멕시코

위도: 19-26N, 경도: 099-06W, 고도: 2238m

현재 날씨관측

예보는 44분 전, 09:51시(UTC)에 발표되었습니다.
동북동4kt
온도 7°C
습도 81%
기압 1028 hPa
시정: 11.3km
고도 20000ft 상공 구름 보통

METAR: MMMX 150951Z 06004KT 7SM SCT200 07/04 A3036 NOSIG RMK 8/002 HZY

시각: 04:35 (10:35 UTC)

예보

예보는 6 시간 5분 전, 04:30시(UTC)에 발표되었습니다.
예보 대상 시간: 15일 06시부터 16일 12시까지 (UTC)
동남동7kt
시정: 10km
고도 22000ft 상공 구름 보통
일시적
15일 12시부터 15일 16시까지 (UTC)
시정: 4.0km
고도 2000ft 상공 구름 보통
박무
15일 1800시부터 (UTC)
남서10kt
시정: 10km
고도 2000ft 상공 구름 보통
고도 9000ft 상공 구름 보통
고도 22000ft 상공 구름 많음
전환 중
16일 05시부터 16일 07시까지 (UTC)
4kt

TAF: MMMX 150430Z 1506/1612 11007KT P6SM SCT220 TX20/1521Z TN08/1512Z TEMPO 1512/1516 2 1/2SM BR SCT020 FM151800 22010KT P6SM SCT020 SCT090 BKN220 BECMG 1605/1607 01004KT

4,000개 이상의 공항 관측 자료 및 예보 (METAR 및 TAF 보고).

지도상에서 검색 가능한 기상관측소가 노란 점과 빨간 점으로 표시되어 있습니다.

기상관측소 명을 보려면 표시 위로 마우스를 이동하세요.

날씨 관측과 예보를 보려면 클릭하세요.

지도 변경 : 확대하려면 엑스 표시가 있는 녹색 버튼, 축소하려면 빼기 표시가 있는 녹색 버튼, 다음 페이지의 지도를 보려면 녹색 화살표를 클릭하세요.


METAR-TAF: